createdAt,value
2023-02-01T00:01:13.363Z,1.98
2023-02-01T00:03:15.786Z,1.83
2023-02-01T00:05:17.651Z,1.80
2023-02-01T00:07:19.167Z,1.88
2023-02-01T00:09:21.810Z,2.00
2023-02-01T00:11:24.132Z,2.03
2023-02-01T00:13:25.829Z,1.90
2023-02-01T00:15:27.560Z,1.77
2023-02-01T00:17:29.180Z,2.10
2023-02-01T00:19:30.914Z,2.33
2023-02-01T00:21:33.119Z,2.55
2023-02-01T00:23:39.655Z,2.17
2023-02-01T00:25:41.310Z,2.28
2023-02-01T00:27:46.159Z,2.10
2023-02-01T00:29:48.061Z,2.47
2023-02-01T00:31:53.769Z,2.42
2023-02-01T00:33:55.300Z,2.47
2023-02-01T00:35:58.824Z,2.47
2023-02-01T00:38:01.249Z,2.75
2023-02-01T00:40:03.621Z,2.78
2023-02-01T00:42:05.169Z,2.60
2023-02-01T00:44:07.350Z,2.72
2023-02-01T00:46:09.553Z,2.47
2023-02-01T00:48:11.448Z,2.40
2023-02-01T00:50:15.424Z,2.28
2023-02-01T00:52:17.177Z,2.42
2023-02-01T00:54:18.924Z,2.63
2023-02-01T00:56:21.506Z,2.40
2023-02-01T00:58:24.974Z,2.75
2023-02-01T01:00:29.800Z,2.60
2023-02-01T01:02:33.950Z,2.60
2023-02-01T01:04:35.477Z,2.90
2023-02-01T01:06:37.290Z,2.17
2023-02-01T01:08:39.978Z,2.50
2023-02-01T01:10:42.362Z,2.33
2023-02-01T01:12:43.867Z,2.47
2023-02-01T01:14:45.339Z,2.30
2023-02-01T01:16:46.959Z,2.30
2023-02-01T01:18:49.466Z,2.03
2023-02-01T01:20:51.111Z,2.10
2023-02-01T01:22:52.606Z,1.95
2023-02-01T01:24:54.150Z,1.95
2023-02-01T01:26:55.876Z,1.70
2023-02-01T01:28:59.186Z,1.92
2023-02-01T01:31:01.099Z,2.00
2023-02-01T01:33:03.278Z,1.88
2023-02-01T01:35:05.414Z,1.70
2023-02-01T01:37:09.972Z,1.70
2023-02-01T01:39:11.581Z,1.52
2023-02-01T01:41:17.202Z,1.40
2023-02-01T01:43:22.159Z,1.77
2023-02-01T01:45:36.704Z,1.25
2023-02-01T01:47:49.407Z,1.60
2023-02-01T01:49:53.940Z,1.63
2023-02-01T01:52:01.638Z,1.80
2023-02-01T01:54:09.287Z,1.90
2023-02-01T01:56:11.784Z,2.10
2023-02-01T01:58:18.591Z,2.00
2023-02-01T02:00:22.235Z,1.90
2023-02-01T02:02:27.085Z,2.20
2023-02-01T02:04:29.023Z,2.03
2023-02-01T02:06:46.476Z,1.77
2023-02-01T02:08:47.983Z,2.00
2023-02-01T02:11:03.359Z,2.15
2023-02-01T02:13:07.885Z,2.20
2023-02-01T02:15:12.225Z,1.75
2023-02-01T02:17:37.640Z,2.10
2023-02-01T02:19:50.730Z,1.90
2023-02-01T02:22:23.274Z,1.77
2023-02-01T02:24:42.692Z,2.08
2023-02-01T02:26:48.752Z,2.30
2023-02-01T02:29:07.406Z,2.15
2023-02-01T02:31:30.660Z,2.13
2023-02-01T02:33:40.744Z,2.20
2023-02-01T02:35:51.843Z,2.00
2023-02-01T02:38:09.961Z,2.50
2023-02-01T02:41:00.346Z,2.25
2023-02-01T02:43:47.614Z,2.45
2023-02-01T02:46:14.922Z,1.90
2023-02-01T02:48:53.018Z,2.40
2023-02-01T02:51:19.409Z,2.30
2023-02-01T02:53:47.176Z,2.30
2023-02-01T02:55:52.079Z,2.08
2023-02-01T02:58:17.088Z,2.10
2023-02-01T03:00:41.666Z,2.42
2023-02-01T03:03:02.485Z,2.25
2023-02-01T03:05:04.524Z,2.22
2023-02-01T03:07:45.545Z,2.10
2023-02-01T03:09:49.741Z,2.58
2023-02-01T03:12:19.577Z,2.20
2023-02-01T03:14:23.967Z,2.10
2023-02-01T03:16:49.553Z,2.03
2023-02-01T03:19:06.488Z,1.83
2023-02-01T03:21:16.929Z,2.05
2023-02-01T03:23:22.971Z,2.00
2023-02-01T03:25:29.955Z,1.80
2023-02-01T03:28:12.543Z,2.13
2023-02-01T03:30:31.016Z,1.77
2023-02-01T03:32:54.681Z,1.90
2023-02-01T03:34:56.728Z,1.92
2023-02-01T03:37:03.929Z,1.85
2023-02-01T03:39:12.813Z,2.00
2023-02-01T03:41:41.453Z,1.80
2023-02-01T03:44:10.664Z,1.73
2023-02-01T03:46:21.924Z,1.88
2023-02-01T03:48:28.229Z,2.00
2023-02-01T03:50:34.645Z,1.88
2023-02-01T03:52:40.896Z,1.90
2023-02-01T03:54:44.964Z,1.83
2023-02-01T03:56:48.808Z,1.92
2023-02-01T03:59:00.006Z,2.35
2023-02-01T04:01:05.824Z,2.08
2023-02-01T04:03:11.914Z,1.90
2023-02-01T04:05:13.427Z,2.17
2023-02-01T04:07:21.915Z,2.20
2023-02-01T04:09:23.552Z,2.00
2023-02-01T04:11:25.238Z,2.00
2023-02-01T04:13:26.908Z,2.25
2023-02-01T04:15:28.453Z,1.85
2023-02-01T04:17:30.621Z,2.30
2023-02-01T04:19:32.187Z,2.00
2023-02-01T04:21:33.905Z,2.40
2023-02-01T04:23:38.896Z,2.00
2023-02-01T04:25:40.638Z,2.13
2023-02-01T04:27:42.796Z,2.20
2023-02-01T04:29:46.141Z,2.05
2023-02-01T04:31:47.839Z,2.45
2023-02-01T04:33:49.442Z,2.30
2023-02-01T04:35:51.175Z,1.88
2023-02-01T04:37:53.992Z,2.45
2023-02-01T04:39:56.040Z,2.30
2023-02-01T04:42:00.380Z,2.20
2023-02-01T04:44:01.904Z,2.08
2023-02-01T04:46:03.582Z,2.28
2023-02-01T04:48:05.507Z,1.92
2023-02-01T04:50:08.746Z,2.13
2023-02-01T04:52:10.502Z,2.08
2023-02-01T04:54:14.816Z,2.22
2023-02-01T04:56:17.619Z,2.20
2023-02-01T04:58:19.562Z,2.00
2023-02-01T05:00:21.961Z,2.30
2023-02-01T05:02:23.744Z,2.05
2023-02-01T05:04:25.550Z,1.90
2023-02-01T05:06:27.919Z,1.92
2023-02-01T05:08:30.552Z,2.03
2023-02-01T05:10:32.116Z,2.10
2023-02-01T05:12:52.334Z,1.75
2023-02-01T05:14:54.076Z,1.92
2023-02-01T05:16:55.636Z,1.95
2023-02-01T05:19:00.915Z,1.70
2023-02-01T05:21:05.506Z,1.80
2023-02-01T05:23:07.376Z,2.10
2023-02-01T05:25:09.094Z,1.83
2023-02-01T05:27:10.695Z,1.90
2023-02-01T05:29:12.702Z,1.70
2023-02-01T05:31:14.378Z,1.98
2023-02-01T05:33:19.047Z,1.98
2023-02-01T05:35:21.054Z,1.90
2023-02-01T05:37:22.779Z,2.22
2023-02-01T05:39:24.512Z,1.73
2023-02-01T05:41:28.519Z,1.67
2023-02-01T05:43:30.073Z,2.30
2023-02-01T05:45:31.754Z,2.00
2023-02-01T05:47:35.669Z,1.73
2023-02-01T05:49:37.174Z,1.85
2023-02-01T05:51:38.913Z,1.63
2023-02-01T05:53:40.656Z,1.50
2023-02-01T05:55:42.853Z,1.70
2023-02-01T05:57:44.498Z,1.80
2023-02-01T05:59:49.182Z,1.85
2023-02-01T06:01:50.846Z,1.90
2023-02-01T06:03:52.447Z,1.75
2023-02-01T06:05:57.247Z,1.45
2023-02-01T06:07:59.325Z,1.63
2023-02-01T06:10:01.069Z,1.50
2023-02-01T06:12:04.356Z,1.50
2023-02-01T06:14:08.845Z,1.90
2023-02-01T06:16:12.771Z,1.40
2023-02-01T06:18:16.825Z,1.38
2023-02-01T06:20:18.533Z,1.42
2023-02-01T06:22:20.167Z,1.70
2023-02-01T06:24:24.600Z,1.40
2023-02-01T06:26:26.254Z,1.48
2023-02-01T06:28:29.392Z,1.08
2023-02-01T06:30:31.510Z,1.05
2023-02-01T06:32:34.271Z,0.90
2023-02-01T06:34:38.177Z,1.08
2023-02-01T06:36:40.318Z,1.00
2023-02-01T06:38:43.625Z,1.00
2023-02-01T06:40:46.004Z,0.70
2023-02-01T06:42:49.482Z,0.90
2023-02-01T06:44:51.065Z,0.90
2023-02-01T06:46:52.840Z,0.82
2023-02-01T06:48:55.286Z,0.60
2023-02-01T06:50:57.195Z,0.85
2023-02-01T06:52:58.690Z,0.65
2023-02-01T06:55:00.336Z,0.80
2023-02-01T06:57:02.048Z,0.85
2023-02-01T06:59:07.894Z,0.65
2023-02-01T07:01:11.109Z,0.68
2023-02-01T07:03:14.038Z,0.68
2023-02-01T07:05:16.053Z,0.73
2023-02-01T07:07:18.301Z,0.50
2023-02-01T07:09:20.003Z,0.80
2023-02-01T07:11:21.691Z,0.57
2023-02-01T07:13:24.125Z,0.60
2023-02-01T07:15:25.674Z,0.63
2023-02-01T07:17:27.464Z,0.50
2023-02-01T07:19:29.119Z,0.60
2023-02-01T07:21:30.788Z,0.90
2023-02-01T07:23:32.800Z,0.70
2023-02-01T07:25:35.608Z,0.70
2023-02-01T07:27:37.756Z,0.68
2023-02-01T07:29:39.344Z,0.95
2023-02-01T07:31:44.272Z,0.75
2023-02-01T07:33:46.425Z,1.10
2023-02-01T07:35:49.215Z,1.20
2023-02-01T07:37:54.022Z,1.10
2023-02-01T07:39:55.585Z,0.80
2023-02-01T07:41:57.590Z,1.13
2023-02-01T07:43:59.349Z,1.25
2023-02-01T07:46:01.629Z,1.30
2023-02-01T07:48:03.992Z,1.48
2023-02-01T07:50:05.682Z,1.15
2023-02-01T07:52:07.535Z,1.60
2023-02-01T07:54:09.282Z,1.52
2023-02-01T07:56:17.040Z,1.08
2023-02-01T07:58:18.631Z,1.30
2023-02-01T08:00:39.412Z,1.52
2023-02-01T08:02:41.016Z,1.35
2023-02-01T08:04:42.744Z,1.45
2023-02-01T08:06:44.705Z,1.23
2023-02-01T08:08:47.875Z,1.50
2023-02-01T08:10:49.320Z,1.42
2023-02-01T08:12:52.855Z,1.75
2023-02-01T08:14:54.866Z,1.60
2023-02-01T08:16:56.399Z,1.70
2023-02-01T08:18:58.125Z,1.58
2023-02-01T08:21:04.674Z,1.50
2023-02-01T08:23:09.912Z,1.40
2023-02-01T08:25:15.279Z,1.50
2023-02-01T08:27:16.924Z,1.60
2023-02-01T08:29:18.835Z,1.60
2023-02-01T08:31:23.798Z,1.70
2023-02-01T08:33:26.009Z,1.83
2023-02-01T08:35:41.525Z,1.75
2023-02-01T08:37:44.727Z,1.70
2023-02-01T08:39:47.789Z,1.50
2023-02-01T08:42:09.338Z,1.55
2023-02-01T08:44:11.003Z,1.40
2023-02-01T08:46:13.095Z,1.58
2023-02-01T08:48:14.959Z,1.45
2023-02-01T08:50:17.382Z,1.73
2023-02-01T08:52:19.233Z,1.60
2023-02-01T08:54:23.399Z,1.40
2023-02-01T08:56:24.995Z,1.73
2023-02-01T08:58:26.519Z,1.38
2023-02-01T09:00:28.142Z,1.70
2023-02-01T09:02:29.665Z,1.17
2023-02-01T09:04:31.464Z,1.45
2023-02-01T09:06:33.420Z,1.65
2023-02-01T09:08:36.206Z,1.80
2023-02-01T09:10:38.143Z,1.85
2023-02-01T09:12:42.643Z,1.30
2023-02-01T09:14:44.350Z,1.30
2023-02-01T09:16:45.896Z,1.65
2023-02-01T09:18:56.139Z,1.67
2023-02-01T09:21:09.676Z,1.30
2023-02-01T09:23:11.348Z,1.30
2023-02-01T09:25:13.109Z,1.20
2023-02-01T09:27:15.379Z,1.55
2023-02-01T09:29:17.245Z,1.60
2023-02-01T09:31:20.010Z,1.52
2023-02-01T09:33:22.333Z,1.42
2023-02-01T09:35:23.971Z,1.30
2023-02-01T09:37:25.605Z,1.38
2023-02-01T09:39:27.255Z,1.70
2023-02-01T09:41:59.495Z,1.58
2023-02-01T09:44:08.577Z,1.42
2023-02-01T09:46:19.647Z,1.85
2023-02-01T09:48:31.116Z,1.75
2023-02-01T09:50:39.316Z,1.60
2023-02-01T09:52:59.867Z,1.40
2023-02-01T09:55:07.443Z,2.13
2023-02-01T09:57:15.855Z,1.45
2023-02-01T09:59:45.842Z,1.67
2023-02-01T10:01:47.768Z,1.73
2023-02-01T10:03:52.928Z,1.70
2023-02-01T10:06:19.537Z,1.42
2023-02-01T10:08:41.059Z,1.70
2023-02-01T10:10:49.370Z,1.85
2023-02-01T10:13:14.570Z,1.52
2023-02-01T10:15:33.157Z,1.92
2023-02-01T10:18:01.577Z,1.73
2023-02-01T10:20:41.073Z,1.63
2023-02-01T10:23:11.462Z,1.65
2023-02-01T10:25:20.220Z,1.92
2023-02-01T10:27:34.804Z,2.15
2023-02-01T10:29:45.655Z,1.77
2023-02-01T10:31:48.183Z,1.67
2023-02-01T10:33:58.551Z,1.58
2023-02-01T10:36:16.378Z,1.70
2023-02-01T10:38:26.698Z,2.03
2023-02-01T10:40:28.703Z,1.70
2023-02-01T10:42:32.089Z,1.77
2023-02-01T10:44:41.251Z,1.90
2023-02-01T10:46:43.427Z,1.98
2023-02-01T10:48:46.579Z,1.77
2023-02-01T10:51:05.829Z,1.63
2023-02-01T10:53:19.757Z,1.60
2023-02-01T10:55:41.369Z,1.77
2023-02-01T10:57:53.379Z,1.90
2023-02-01T10:59:57.907Z,1.77
2023-02-01T11:02:20.933Z,1.88
2023-02-01T11:04:27.319Z,1.90
2023-02-01T11:06:36.043Z,1.90
2023-02-01T11:08:49.764Z,1.70
2023-02-01T11:11:01.660Z,2.00
2023-02-01T11:13:07.105Z,1.90
2023-02-01T11:15:20.956Z,1.85
2023-02-01T11:17:29.629Z,2.00
2023-02-01T11:19:31.680Z,1.83
2023-02-01T11:21:35.239Z,1.70
2023-02-01T11:23:43.297Z,1.60
2023-02-01T11:25:55.335Z,2.17
2023-02-01T11:27:57.917Z,2.08
2023-02-01T11:30:03.175Z,1.83
2023-02-01T11:32:06.039Z,1.85
2023-02-01T11:34:23.620Z,1.90
2023-02-01T11:36:38.703Z,1.83
2023-02-01T11:38:40.216Z,1.80
2023-02-01T11:40:42.069Z,1.45
2023-02-01T11:43:08.178Z,1.50
2023-02-01T11:45:21.531Z,2.15
2023-02-01T11:47:39.315Z,1.77
2023-02-01T11:49:41.032Z,2.00
2023-02-01T11:51:55.982Z,1.73
2023-02-01T11:54:32.870Z,2.00
2023-02-01T11:56:45.420Z,1.80
2023-02-01T11:59:05.249Z,1.48
2023-02-01T12:01:10.052Z,1.63
2023-02-01T12:03:32.727Z,1.77
2023-02-01T12:05:52.005Z,1.92
2023-02-01T12:08:39.136Z,1.60
2023-02-01T12:10:59.105Z,1.52
2023-02-01T12:13:22.761Z,1.35
2023-02-01T12:16:14.336Z,1.50
2023-02-01T12:18:45.022Z,1.60
2023-02-01T12:20:59.264Z,1.60
2023-02-01T12:23:16.165Z,1.90
2023-02-01T12:25:40.777Z,1.55
2023-02-01T12:27:55.108Z,1.55
2023-02-01T12:30:35.458Z,2.00
2023-02-01T12:33:10.872Z,1.45
2023-02-01T12:35:33.830Z,1.40
2023-02-01T12:38:14.335Z,1.88
2023-02-01T12:40:44.689Z,1.55
2023-02-01T12:43:02.977Z,1.80
2023-02-01T12:45:24.981Z,1.45
2023-02-01T12:47:40.396Z,1.73
2023-02-01T12:50:16.306Z,1.50
2023-02-01T12:52:27.281Z,1.52
2023-02-01T12:54:45.102Z,1.67
2023-02-01T12:56:56.720Z,1.70
2023-02-01T12:59:06.200Z,1.75
2023-02-01T13:01:36.069Z,1.52
2023-02-01T13:03:43.591Z,1.70
2023-02-01T13:05:58.932Z,1.50
2023-02-01T13:08:10.379Z,1.95
2023-02-01T13:10:35.634Z,1.70
2023-02-01T13:13:04.002Z,1.45
2023-02-01T13:15:18.480Z,1.45
2023-02-01T13:17:27.078Z,1.45
2023-02-01T13:19:44.536Z,2.03
2023-02-01T13:22:02.970Z,1.80
2023-02-01T13:24:05.065Z,1.55
2023-02-01T13:26:07.277Z,1.58
2023-02-01T13:28:17.688Z,1.45
2023-02-01T13:30:25.125Z,1.92
2023-02-01T13:33:50.853Z,1.90
2023-02-01T13:35:08.209Z,1.73
2023-02-01T13:37:34.794Z,1.90
2023-02-01T13:40:14.202Z,1.60
2023-02-01T13:42:21.034Z,1.95
2023-02-01T13:44:32.281Z,2.00
2023-02-01T13:46:46.633Z,1.60
2023-02-01T13:48:57.942Z,2.40
2023-02-01T13:51:01.333Z,1.65
2023-02-01T13:53:23.383Z,1.90
2023-02-01T13:55:32.122Z,1.80
2023-02-01T13:57:38.636Z,1.58
2023-02-01T13:59:42.144Z,1.50
2023-02-01T14:01:43.878Z,1.70
2023-02-01T14:03:48.901Z,1.60
2023-02-01T14:05:50.905Z,1.52
2023-02-01T14:08:07.678Z,1.65
2023-02-01T14:10:55.289Z,2.05
2023-02-01T14:13:23.628Z,2.08
2023-02-01T14:15:29.140Z,1.63
2023-02-01T14:17:38.755Z,1.85
2023-02-01T14:19:42.677Z,1.98
2023-02-01T14:22:02.161Z,1.90
2023-02-01T14:24:23.879Z,1.65
2023-02-01T14:26:31.725Z,2.03
2023-02-01T14:28:33.431Z,2.28
2023-02-01T14:30:34.979Z,1.77
2023-02-01T14:32:42.847Z,1.80
2023-02-01T14:34:47.599Z,2.03
2023-02-01T14:36:58.905Z,1.88
2023-02-01T14:39:00.505Z,1.73
2023-02-01T14:41:32.985Z,1.70
2023-02-01T14:44:12.762Z,1.85
2023-02-01T14:46:14.405Z,1.63
2023-02-01T14:48:18.745Z,1.63
2023-02-01T14:50:38.343Z,1.63
2023-02-01T14:52:48.216Z,1.60
2023-02-01T14:55:03.158Z,1.90
2023-02-01T14:57:05.519Z,1.77
2023-02-01T14:59:17.417Z,2.05
2023-02-01T15:01:21.993Z,1.85
2023-02-01T15:03:30.547Z,1.75
2023-02-01T15:05:34.950Z,1.70
2023-02-01T15:07:36.503Z,2.13
2023-02-01T15:09:49.127Z,1.65
2023-02-01T15:12:23.916Z,1.90
2023-02-01T15:14:29.828Z,1.70
2023-02-01T15:16:44.095Z,2.03
2023-02-01T15:18:46.433Z,1.80
2023-02-01T15:21:09.259Z,1.70
2023-02-01T15:23:19.939Z,1.67
2023-02-01T15:25:25.641Z,1.85
2023-02-01T15:27:29.804Z,1.83
2023-02-01T15:29:34.266Z,1.60
2023-02-01T15:31:48.276Z,1.80
2023-02-01T15:33:59.587Z,1.65
2023-02-01T15:36:07.090Z,1.50
2023-02-01T15:38:30.287Z,1.73
2023-02-01T15:40:33.441Z,1.92
2023-02-01T15:42:35.246Z,2.00
2023-02-01T15:44:47.091Z,1.65
2023-02-01T15:46:51.847Z,1.75
2023-02-01T15:48:55.588Z,1.70
2023-02-01T15:50:57.311Z,1.75
2023-02-01T15:53:01.305Z,1.92
2023-02-01T15:55:07.917Z,1.70
2023-02-01T15:57:09.771Z,1.60
2023-02-01T15:59:18.284Z,1.60
2023-02-01T16:01:20.816Z,2.20
2023-02-01T16:03:42.140Z,2.08
2023-02-01T16:05:45.702Z,1.90
2023-02-01T16:08:04.801Z,1.80
2023-02-01T16:10:25.757Z,1.90
2023-02-01T16:12:39.685Z,1.48
2023-02-01T16:14:41.527Z,2.13
2023-02-01T16:16:49.937Z,1.77
2023-02-01T16:18:51.540Z,1.88
2023-02-01T16:20:53.806Z,1.60
2023-02-01T16:22:57.973Z,1.67
2023-02-01T16:24:59.649Z,2.05
2023-02-01T16:27:01.203Z,1.73
2023-02-01T16:29:07.163Z,1.50
2023-02-01T16:31:22.922Z,1.30
2023-02-01T16:33:25.008Z,1.90
2023-02-01T16:35:31.602Z,1.85
2023-02-01T16:37:40.084Z,2.13
2023-02-01T16:39:41.971Z,1.85
2023-02-01T16:41:43.885Z,1.70
2023-02-01T16:43:46.114Z,2.00
2023-02-01T16:45:49.375Z,2.03
2023-02-01T16:47:55.447Z,1.70
2023-02-01T16:49:57.121Z,2.17
2023-02-01T16:52:00.169Z,1.88
2023-02-01T16:54:02.302Z,1.73
2023-02-01T16:56:16.480Z,1.60
2023-02-01T16:58:18.340Z,2.00
2023-02-01T17:00:25.496Z,1.92
2023-02-01T17:02:30.171Z,1.98
2023-02-01T17:04:32.949Z,1.73
2023-02-01T17:06:37.766Z,2.28
2023-02-01T17:08:43.183Z,1.80
2023-02-01T17:10:44.787Z,1.95
2023-02-01T17:12:47.220Z,2.10
2023-02-01T17:14:49.515Z,1.88
2023-02-01T17:17:01.935Z,2.10
2023-02-01T17:19:10.748Z,1.73
2023-02-01T17:21:12.724Z,1.58
2023-02-01T17:23:16.828Z,1.98
2023-02-01T17:25:21.599Z,2.20
2023-02-01T17:27:23.583Z,1.88
2023-02-01T17:29:35.680Z,2.35
2023-02-01T17:31:50.528Z,1.80
2023-02-01T17:33:54.769Z,1.75
2023-02-01T17:35:59.285Z,2.03
2023-02-01T17:38:06.345Z,2.20
2023-02-01T17:40:16.206Z,1.85
2023-02-01T17:42:17.737Z,2.00
2023-02-01T17:44:19.602Z,2.38
2023-02-01T17:46:26.911Z,2.20
2023-02-01T17:48:30.115Z,2.30
2023-02-01T17:50:36.539Z,2.38
2023-02-01T17:52:38.045Z,2.13
2023-02-01T17:54:40.678Z,1.80
2023-02-01T17:56:42.914Z,2.10
2023-02-01T17:58:45.152Z,1.75
2023-02-01T18:00:51.662Z,1.73
2023-02-01T18:02:53.418Z,2.10
2023-02-01T18:04:55.771Z,1.85
2023-02-01T18:07:03.253Z,1.98
2023-02-01T18:09:04.939Z,1.80
2023-02-01T18:11:14.387Z,1.65
2023-02-01T18:13:18.405Z,2.15
2023-02-01T18:15:26.774Z,1.83
2023-02-01T18:17:28.421Z,1.90
2023-02-01T18:19:30.401Z,1.83
2023-02-01T18:21:43.815Z,1.90
2023-02-01T18:23:46.081Z,2.05
2023-02-01T18:25:48.537Z,1.65
2023-02-01T18:27:55.076Z,1.67
2023-02-01T18:29:57.150Z,1.65
2023-02-01T18:31:59.059Z,1.70
2023-02-01T18:34:04.355Z,1.90
2023-02-01T18:36:13.229Z,1.90
2023-02-01T18:38:14.851Z,1.92
2023-02-01T18:40:25.333Z,1.73
2023-02-01T18:42:28.646Z,2.33
2023-02-01T18:44:30.461Z,2.25
2023-02-01T18:46:34.519Z,2.35
2023-02-01T18:48:36.277Z,2.00
2023-02-01T18:50:45.882Z,1.90
2023-02-01T18:52:50.790Z,1.80
2023-02-01T18:54:59.531Z,1.77
2023-02-01T18:57:07.021Z,1.80
2023-02-01T18:59:11.611Z,1.70
2023-02-01T19:01:18.727Z,1.65
2023-02-01T19:03:26.086Z,1.98
2023-02-01T19:05:30.883Z,2.10
2023-02-01T19:07:32.617Z,1.90
2023-02-01T19:09:39.713Z,1.92
2023-02-01T19:11:41.375Z,1.55
2023-02-01T19:13:46.201Z,2.10
2023-02-01T19:15:50.755Z,1.83
2023-02-01T19:17:55.316Z,1.80
2023-02-01T19:19:58.613Z,1.90
2023-02-01T19:22:03.992Z,1.80
2023-02-01T19:24:08.253Z,2.35
2023-02-01T19:26:16.018Z,2.10
2023-02-01T19:28:17.733Z,1.77
2023-02-01T19:30:25.673Z,2.13
2023-02-01T19:32:27.484Z,2.10
2023-02-01T19:34:29.275Z,1.85
2023-02-01T19:36:31.215Z,1.90
2023-02-01T19:38:34.098Z,2.10
2023-02-01T19:40:36.113Z,1.90
2023-02-01T19:42:37.934Z,2.47
2023-02-01T19:44:39.798Z,1.92
2023-02-01T19:46:44.108Z,1.98
2023-02-01T19:48:48.914Z,1.90
2023-02-01T19:50:52.375Z,2.03
2023-02-01T19:53:09.730Z,2.20
2023-02-01T19:55:14.533Z,2.33
2023-02-01T19:57:16.169Z,2.03
2023-02-01T19:59:22.858Z,1.83
2023-02-01T20:01:25.508Z,1.92
2023-02-01T20:03:32.181Z,2.10
2023-02-01T20:05:36.818Z,2.22
2023-02-01T20:07:38.703Z,1.60
2023-02-01T20:09:43.497Z,1.90
2023-02-01T20:11:45.629Z,1.92
2023-02-01T20:13:50.595Z,1.77
2023-02-01T20:15:58.489Z,1.90
2023-02-01T20:18:00.316Z,1.88
2023-02-01T20:20:03.829Z,2.20
2023-02-01T20:22:05.579Z,1.83
2023-02-01T20:24:08.363Z,2.25
2023-02-01T20:26:12.260Z,1.70
2023-02-01T20:28:21.384Z,2.25
2023-02-01T20:30:26.293Z,1.92
2023-02-01T20:32:28.176Z,1.73
2023-02-01T20:34:31.069Z,2.47
2023-02-01T20:36:35.651Z,1.85
2023-02-01T20:38:37.225Z,1.80
2023-02-01T20:40:41.032Z,1.95
2023-02-01T20:42:42.731Z,1.85
2023-02-01T20:44:44.384Z,2.00
2023-02-01T20:46:50.677Z,2.05
2023-02-01T20:48:52.461Z,2.08
2023-02-01T20:50:57.519Z,1.77
2023-02-01T20:52:59.087Z,1.95
2023-02-01T20:55:00.695Z,2.13
2023-02-01T20:57:02.420Z,2.13
2023-02-01T20:59:04.104Z,2.03
2023-02-01T21:01:06.162Z,2.28
2023-02-01T21:03:07.914Z,1.70
2023-02-01T21:05:09.817Z,1.52
2023-02-01T21:07:11.546Z,1.73
2023-02-01T21:09:13.512Z,1.73
2023-02-01T21:11:15.868Z,1.92
2023-02-01T21:13:17.649Z,1.67
2023-02-01T21:15:25.773Z,1.58
2023-02-01T21:17:31.415Z,2.00
2023-02-01T21:19:42.910Z,1.65
2023-02-01T21:21:44.844Z,2.40
2023-02-01T21:23:46.738Z,1.80
2023-02-01T21:25:51.344Z,1.75
2023-02-01T21:27:53.151Z,1.85
2023-02-01T21:29:54.886Z,1.67
2023-02-01T21:31:56.695Z,1.58
2023-02-01T21:34:01.405Z,1.75
2023-02-01T21:36:03.451Z,1.80
2023-02-01T21:38:05.082Z,1.65
2023-02-01T21:40:07.211Z,1.50
2023-02-01T21:42:17.683Z,2.08
2023-02-01T21:44:24.539Z,1.67
2023-02-01T21:46:29.264Z,1.83
2023-02-01T21:48:31.055Z,1.70
2023-02-01T21:50:52.726Z,2.10
2023-02-01T21:52:54.344Z,1.90
2023-02-01T21:54:59.480Z,2.17
2023-02-01T21:57:01.700Z,1.88
2023-02-01T21:59:03.498Z,1.85
2023-02-01T22:01:05.424Z,1.77
2023-02-01T22:03:07.266Z,2.92
2023-02-01T22:05:09.904Z,8.45
2023-02-01T22:07:12.109Z,10.80
2023-02-01T22:09:19.837Z,11.13
2023-02-01T22:11:21.882Z,8.23
2023-02-01T22:13:23.707Z,7.07
2023-02-01T22:15:29.131Z,4.65
2023-02-01T22:17:31.722Z,3.97
2023-02-01T22:19:33.400Z,3.75
2023-02-01T22:21:35.179Z,3.00
2023-02-01T22:23:36.939Z,2.28
2023-02-01T22:25:38.557Z,2.15
2023-02-01T22:28:30.131Z,2.20
2023-02-01T22:30:02.568Z,2.10
2023-02-01T22:32:07.584Z,1.98
2023-02-01T22:34:12.911Z,1.67
2023-02-01T22:36:17.057Z,2.20
2023-02-01T22:38:18.787Z,2.05
2023-02-01T22:40:20.848Z,1.80
2023-02-01T22:42:22.401Z,1.50
2023-02-01T22:44:24.115Z,1.90
2023-02-01T22:46:27.321Z,1.77
2023-02-01T22:48:31.566Z,2.03
2023-02-01T22:50:33.128Z,1.95
2023-02-01T22:52:34.781Z,2.05
2023-02-01T22:54:36.769Z,1.73
2023-02-01T22:56:38.376Z,2.15
2023-02-01T22:58:40.536Z,1.67
2023-02-01T23:00:42.103Z,1.85
2023-02-01T23:02:44.492Z,1.85
2023-02-01T23:04:48.460Z,1.55
2023-02-01T23:06:52.006Z,1.60
2023-02-01T23:08:58.473Z,1.70
2023-02-01T23:11:06.963Z,2.08
2023-02-01T23:13:08.640Z,1.77
2023-02-01T23:15:12.470Z,1.77
2023-02-01T23:17:14.029Z,1.90
2023-02-01T23:19:16.876Z,1.80
2023-02-01T23:21:21.537Z,1.63
2023-02-01T23:23:23.099Z,1.70
2023-02-01T23:25:25.023Z,1.80
2023-02-01T23:27:27.231Z,1.75
2023-02-01T23:29:29.185Z,1.70
2023-02-01T23:31:33.161Z,1.83
2023-02-01T23:33:35.693Z,1.70
2023-02-01T23:35:37.499Z,1.92
2023-02-01T23:37:42.675Z,1.13
2023-02-01T23:39:44.465Z,1.02
2023-02-01T23:41:45.976Z,0.80
2023-02-01T23:43:59.947Z,0.52
2023-02-01T23:46:01.863Z,0.55
2023-02-01T23:48:03.691Z,0.63
2023-02-01T23:50:05.556Z,0.70
2023-02-01T23:52:07.234Z,0.70
2023-02-01T23:54:10.958Z,0.60
2023-02-01T23:56:19.746Z,0.50
2023-02-01T23:58:22.434Z,0.75
